Terminal Aerodrome Forecast
Issued by NWS

Home | Current Version | Previous Version | Text Only | Print | Product List | Glossary On
Versions: 1 2 3 4 5 6 7 8 9 10 11 12 13 14 15 16 17 18 19 20
653
FTUS42 KTBW 071428 AAA
TAFLAL
TAF AMD
KLAL 071428Z 0714/0812 VRB05KT 1SM BR SCT003 BKN012
      TEMPO 0714/0715 1/4SM FG BKN003
     FM071500 31005KT P6SM SCT015
     FM080200 VRB03KT P6SM FEW010 SCT090
     FM080800 VRB03KT 5SM BR SCT010 BKN025=

USA.gov is the U.S. government's official web portal to all federal, state and local government web resources and services.